Time;durP1;ratioP1;P1;durP2;ratioP2;P2;SDS_P1;SDS_P2;PMS_P1;PMS_P2;Temp;Humidity;BMP_temperature;BMP_pressure;BME280_temperature;BME280_humidity;BME280_pressure;Samples;Min_cycle;Max_cycle;Signal;HPM_P1;HPM_P2
2023/04/08 00:04:45;;;;;;;4.57;3.70;;;;;;;;;;9995809;29;20053;-86
2023/04/08 00:09:49;;;;;;;4.40;3.50;;;;;;;;;;9996045;29;20061;-86
2023/04/08 00:14:53;;;;;;;4.50;3.22;;;;;;;;;;10007420;29;20111;-87
2023/04/08 00:19:59;;;;;;;6.05;3.78;;;;;;;;;;9998887;29;20129;-84
2023/04/08 00:25:05;;;;;;;4.20;3.03;;;;;;;;;;9999940;29;20068;-85
2023/04/08 00:30:10;;;;;;;4.85;3.15;;;;;;;;;;10015426;29;20679;-86
2023/04/08 00:35:15;;;;;;;5.20;3.80;;;;;;;;;;10014736;29;20133;-85
2023/04/08 00:40:19;;;;;;;4.97;3.65;;;;;;;;;;10014222;29;20076;-85
2023/04/08 00:45:23;;;;;;;6.40;4.35;;;;;;;;;;10007093;29;20038;-85
2023/04/08 00:50:28;;;;;;;6.60;4.43;;;;;;;;;;9978101;29;20054;-85
2023/04/08 00:55:31;;;;;;;5.93;4.30;;;;;;;;;;9961179;29;20069;-85
2023/04/08 01:00:41;;;;;;;6.05;4.22;;;;;;;;;;9962792;29;20050;-85
2023/04/08 01:05:56;;;;;;;6.20;4.25;;;;;;;;;;9959134;29;20053;-85
2023/04/08 01:11:04;;;;;;;8.30;4.57;;;;;;;;;;9970312;29;20099;-86
2023/04/08 01:16:12;;;;;;;7.90;4.90;;;;;;;;;;9951458;29;20041;-85
2023/04/08 01:21:18;;;;;;;5.88;4.18;;;;;;;;;;9969878;29;20496;-85
2023/04/08 01:26:25;;;;;;;5.35;4.15;;;;;;;;;;9968111;29;20046;-85
2023/04/08 01:31:29;;;;;;;6.10;4.13;;;;;;;;;;10007283;29;20054;-85
2023/04/08 01:36:34;;;;;;;6.40;4.38;;;;;;;;;;9990148;29;20044;-85
2023/04/08 01:41:40;;;;;;;5.22;4.18;;;;;;;;;;10021225;29;20049;-85
2023/04/08 01:46:44;;;;;;;7.20;4.85;;;;;;;;;;10015294;29;20042;-86
2023/04/08 01:51:49;;;;;;;7.30;5.15;;;;;;;;;;9981524;29;20501;-86
2023/04/08 01:56:57;;;;;;;5.47;4.10;;;;;;;;;;10016123;29;20125;-85
2023/04/08 02:02:01;;;;;;;6.88;4.90;;;;;;;;;;10000669;29;20548;-86
2023/04/08 02:07:05;;;;;;;7.05;4.82;;;;;;;;;;10020060;29;20042;-85
2023/04/08 02:12:11;;;;;;;8.63;5.80;;;;;;;;;;10020049;29;20049;-85
2023/04/08 02:17:19;;;;;;;8.07;5.43;;;;;;;;;;10018287;29;20389;-85
2023/04/08 02:22:29;;;;;;;7.40;5.43;;;;;;;;;;10010928;29;20046;-85
2023/04/08 02:27:35;;;;;;;8.00;5.13;;;;;;;;;;10002690;29;20054;-86
2023/04/08 02:32:39;;;;;;;7.88;5.20;;;;;;;;;;10012428;29;20520;-86
2023/04/08 02:37:46;;;;;;;7.80;4.95;;;;;;;;;;10005486;29;20048;-85
2023/04/08 02:42:51;;;;;;;;;;;;;;;;;;10008090;29;20046;-86
2023/04/08 02:47:55;;;;;;;5.93;4.32;;;;;;;;;;10031644;29;20011;-88
2023/04/08 02:52:58;;;;;;;7.43;5.15;;;;;;;;;;10080611;24;20057;-87
2023/04/08 02:58:03;;;;;;;7.50;4.90;;;;;;;;;;10088335;29;20541;-87
2023/04/08 03:03:06;;;;;;;7.28;4.85;;;;;;;;;;10100575;29;20049;-87
2023/04/08 03:08:10;;;;;;;8.18;5.75;;;;;;;;;;10099258;29;20120;-86
2023/04/08 03:13:15;;;;;;;6.78;4.68;;;;;;;;;;10123194;29;20059;-87
2023/04/08 03:18:18;;;;;;;6.68;4.60;;;;;;;;;;10120057;29;20052;-87
2023/04/08 03:23:22;;;;;;;8.30;5.30;;;;;;;;;;10143016;29;20087;-87
2023/04/08 03:28:26;;;;;;;7.05;4.85;;;;;;;;;;10120560;29;20135;-87
2023/04/08 03:33:30;;;;;;;8.05;5.65;;;;;;;;;;10121659;29;20052;-87
2023/04/08 03:38:33;;;;;;;7.50;4.97;;;;;;;;;;10134520;29;20048;-87
2023/04/08 03:43:38;;;;;;;7.03;4.90;;;;;;;;;;10120861;29;20052;-87
2023/04/08 03:48:41;;;;;;;8.30;5.25;;;;;;;;;;10116663;29;20049;-87
2023/04/08 03:53:45;;;;;;;7.82;5.18;;;;;;;;;;10116467;29;20049;-87
2023/04/08 03:58:49;;;;;;;6.63;4.50;;;;;;;;;;10133518;29;20043;-87
2023/04/08 04:03:53;;;;;;;5.70;4.28;;;;;;;;;;10138915;29;20069;-86
2023/04/08 04:08:56;;;;;;;5.93;4.63;;;;;;;;;;10131743;29;20121;-87
2023/04/08 04:14:01;;;;;;;5.53;4.30;;;;;;;;;;10115958;29;20044;-87
2023/04/08 04:19:05;;;;;;;6.78;4.60;;;;;;;;;;10116060;29;20052;-87
2023/04/08 04:24:08;;;;;;;6.40;4.88;;;;;;;;;;10115909;29;20387;-87
2023/04/08 04:29:13;;;;;;;5.50;3.83;;;;;;;;;;10111494;29;20475;-87
2023/04/08 04:34:16;;;;;;;5.80;4.63;;;;;;;;;;10115934;29;20522;-86
2023/04/08 04:39:20;;;;;;;6.78;4.40;;;;;;;;;;10118301;29;20053;-87
2023/04/08 04:44:24;;;;;;;6.60;5.18;;;;;;;;;;10129090;29;20044;-87
2023/04/08 04:49:28;;;;;;;6.80;4.65;;;;;;;;;;10135695;29;20063;-87
2023/04/08 04:54:31;;;;;;;7.20;4.55;;;;;;;;;;10132016;29;20151;-87
2023/04/08 04:59:36;;;;;;;6.30;4.53;;;;;;;;;;10131806;29;20052;-87
2023/04/08 05:04:39;;;;;;;6.75;4.40;;;;;;;;;;10126142;29;20044;-87
2023/04/08 05:09:43;;;;;;;5.18;3.80;;;;;;;;;;10114075;29;20040;-87
2023/04/08 05:14:48;;;;;;;7.68;4.70;;;;;;;;;;10118697;29;20718;-87
2023/04/08 05:19:52;;;;;;;7.43;4.70;;;;;;;;;;10141802;29;20052;-87
2023/04/08 05:24:55;;;;;;;6.95;4.82;;;;;;;;;;10137992;29;20132;-87
2023/04/08 05:30:00;;;;;;;6.40;4.68;;;;;;;;;;10114511;29;20574;-87
2023/04/08 05:35:04;;;;;;;5.95;4.40;;;;;;;;;;10114695;29;20037;-87
2023/04/08 05:40:08;;;;;;;6.72;4.93;;;;;;;;;;10134111;29;20135;-87
2023/04/08 05:45:13;;;;;;;5.90;4.40;;;;;;;;;;10114451;29;20474;-87
2023/04/08 05:50:16;;;;;;;6.38;5.07;;;;;;;;;;10124683;29;20080;-88
2023/04/08 05:55:20;;;;;;;6.95;5.38;;;;;;;;;;10136321;29;20053;-87
2023/04/08 06:00:25;;;;;;;8.05;5.45;;;;;;;;;;10107160;29;20073;-87
2023/04/08 06:05:29;;;;;;;8.93;5.63;;;;;;;;;;10127544;29;20139;-87
2023/04/08 06:10:32;;;;;;;8.05;5.57;;;;;;;;;;10139327;29;20062;-87
2023/04/08 06:15:37;;;;;;;7.43;4.88;;;;;;;;;;10132178;29;20052;-87
2023/04/08 06:20:40;;;;;;;7.88;5.20;;;;;;;;;;10136695;29;20510;-87
2023/04/08 06:25:44;;;;;;;9.25;5.30;;;;;;;;;;10119463;29;20541;-87
2023/04/08 06:30:48;;;;;;;8.48;5.65;;;;;;;;;;10116561;29;20075;-87
2023/04/08 06:35:52;;;;;;;7.72;5.43;;;;;;;;;;10150702;29;20159;-88
2023/04/08 06:40:56;;;;;;;8.80;5.60;;;;;;;;;;10135904;29;20071;-88
2023/04/08 06:46:01;;;;;;;10.05;6.13;;;;;;;;;;10141600;29;20410;-88
2023/04/08 06:51:04;;;;;;;7.88;5.57;;;;;;;;;;10120045;29;20048;-88
2023/04/08 06:56:08;;;;;;;6.85;4.95;;;;;;;;;;10129046;29;20048;-88
2023/04/08 07:01:12;;;;;;;7.38;5.35;;;;;;;;;;10134172;29;20097;-88
2023/04/08 07:06:16;;;;;;;11.60;7.90;;;;;;;;;;10133347;29;20078;-88
2023/04/08 07:11:19;;;;;;;8.20;6.07;;;;;;;;;;10124743;29;20064;-88
2023/04/08 07:16:25;;;;;;;12.93;7.60;;;;;;;;;;10130077;29;20056;-88
2023/04/08 07:21:29;;;;;;;8.68;5.80;;;;;;;;;;10134496;29;20041;-88
2023/04/08 07:26:33;;;;;;;9.88;6.50;;;;;;;;;;10135396;29;20514;-88
2023/04/08 07:31:38;;;;;;;8.32;5.90;;;;;;;;;;10117901;29;20041;-88
2023/04/08 07:36:41;;;;;;;14.00;8.18;;;;;;;;;;10118460;29;20048;-88
2023/04/08 07:41:44;;;;;;;12.48;8.50;;;;;;;;;;10134916;29;20131;-89
2023/04/08 07:46:50;;;;;;;9.93;6.32;;;;;;;;;;10119676;29;20040;-88
2023/04/08 07:51:54;;;;;;;9.63;6.78;;;;;;;;;;10124144;29;20051;-90
2023/04/08 07:56:58;;;;;;;11.80;7.45;;;;;;;;;;10125944;29;20081;-87
2023/04/08 08:02:03;;;;;;;12.52;8.10;;;;;;;;;;10128278;29;20095;-87
2023/04/08 08:07:07;;;;;;;11.23;7.55;;;;;;;;;;10108011;29;20108;-89
2023/04/08 08:12:10;;;;;;;15.25;9.95;;;;;;;;;;10109528;29;20044;-88
2023/04/08 08:17:15;;;;;;;20.02;11.40;;;;;;;;;;10126796;29;20076;-88
2023/04/08 08:22:18;;;;;;;11.52;7.18;;;;;;;;;;10109529;29;20131;-89
2023/04/08 08:27:21;;;;;;;10.15;6.95;;;;;;;;;;10132151;29;20140;-88
2023/04/08 08:32:27;;;;;;;8.35;5.57;;;;;;;;;;10125448;29;20053;-88
2023/04/08 08:37:30;;;;;;;16.17;10.98;;;;;;;;;;10124259;29;20060;-87
2023/04/08 08:42:34;;;;;;;11.52;8.13;;;;;;;;;;10115930;29;20049;-88
2023/04/08 08:47:38;;;;;;;14.88;9.88;;;;;;;;;;10205658;23;20180;-81
2023/04/08 08:52:49;;;;;;;10.75;7.32;;;;;;;;;;10104876;29;20072;-81
2023/04/08 08:57:52;;;;;;;8.15;5.78;;;;;;;;;;10114496;29;20040;-81
2023/04/08 09:03:06;;;;;;;9.55;6.88;;;;;;;;;;10116299;29;20076;-81
2023/04/08 09:08:24;;;;;;;11.07;8.15;;;;;;;;;;10111262;29;20045;-81
2023/04/08 09:13:36;;;;;;;13.27;8.25;;;;;;;;;;10113387;29;20063;-81
2023/04/08 09:18:43;;;;;;;12.90;8.55;;;;;;;;;;10100055;29;20052;-81
2023/04/08 09:23:48;;;;;;;9.05;6.75;;;;;;;;;;10093482;29;20047;-81
2023/04/08 09:29:02;;;;;;;7.43;5.47;;;;;;;;;;10137716;29;20534;-81
2023/04/08 09:34:14;;;;;;;14.32;10.00;;;;;;;;;;10099541;29;20151;-81
2023/04/08 09:39:17;;;;;;;12.02;7.25;;;;;;;;;;10109809;29;20044;-81
2023/04/08 09:44:21;;;;;;;7.82;5.60;;;;;;;;;;10113600;29;20084;-81
2023/04/08 09:49:30;;;;;;;7.78;5.43;;;;;;;;;;10104690;29;20052;-81
2023/04/08 09:54:54;;;;;;;6.82;5.13;;;;;;;;;;10127897;29;20083;-83
2023/04/08 10:00:01;;;;;;;5.68;4.47;;;;;;;;;;10099741;29;20478;-83
2023/04/08 10:05:18;;;;;;;7.00;5.03;;;;;;;;;;10128399;29;20044;-83
2023/04/08 10:10:22;;;;;;;9.30;6.65;;;;;;;;;;10124544;29;20132;-82
2023/04/08 10:15:27;;;;;;;6.75;4.78;;;;;;;;;;10111937;29;20636;-83
2023/04/08 10:20:46;;;;;;;5.57;4.28;;;;;;;;;;10103475;29;20048;-83
2023/04/08 10:25:49;;;;;;;5.93;4.18;;;;;;;;;;10108452;29;20406;-83
2023/04/08 10:30:54;;;;;;;6.05;4.55;;;;;;;;;;10110376;29;20499;-83
2023/04/08 10:36:09;;;;;;;9.18;6.25;;;;;;;;;;10127177;29;20056;-83
2023/04/08 10:41:15;;;;;;;7.15;5.10;;;;;;;;;;10106456;29;20052;-83
2023/04/08 10:46:18;;;;;;;8.55;5.80;;;;;;;;;;10124476;29;20084;-83
2023/04/08 10:51:23;;;;;;;5.88;4.32;;;;;;;;;;10110192;29;20068;-85
2023/04/08 10:56:29;;;;;;;5.93;4.50;;;;;;;;;;10099139;29;20057;-84
2023/04/08 11:01:43;;;;;;;8.02;4.43;;;;;;;;;;10121188;29;20132;-84
2023/04/08 11:06:50;;;;;;;7.80;5.65;;;;;;;;;;10105149;29;20053;-84
2023/04/08 11:11:55;;;;;;;6.15;4.75;;;;;;;;;;10113848;29;20084;-83
2023/04/08 11:17:00;;;;;;;6.50;4.45;;;;;;;;;;10115048;29;20128;-83
2023/04/08 11:22:06;;;;;;;6.80;4.88;;;;;;;;;;10121257;29;20068;-82
2023/04/08 11:27:10;;;;;;;;;;;;;;;;;;10125048;29;20315;-83
2023/04/08 11:32:13;;;;;;;4.53;3.78;;;;;;;;;;10123100;29;19924;-83
2023/04/08 11:37:18;;;;;;;4.95;3.90;;;;;;;;;;10122569;29;20184;-84
2023/04/08 11:42:28;;;;;;;5.70;3.80;;;;;;;;;;10115667;29;20040;-83
2023/04/08 11:47:32;;;;;;;5.65;4.43;;;;;;;;;;10121460;29;20091;-82
2023/04/08 11:52:43;;;;;;;5.75;4.05;;;;;;;;;;10104147;29;20049;-82
2023/04/08 11:57:47;;;;;;;4.63;3.92;;;;;;;;;;10116668;29;20123;-83
2023/04/08 12:02:52;;;;;;;6.50;4.68;;;;;;;;;;10103464;29;20516;-84
2023/04/08 12:07:57;;;;;;;7.55;4.45;;;;;;;;;;10103406;29;20080;-84
2023/04/08 12:13:00;;;;;;;6.60;3.75;;;;;;;;;;10103548;29;20055;-82
2023/04/08 12:18:05;;;;;;;6.40;4.68;;;;;;;;;;10109884;29;20068;-83
2023/04/08 12:23:09;;;;;;;6.65;4.65;;;;;;;;;;10102763;29;20096;-84
2023/04/08 12:28:13;;;;;;;5.65;3.97;;;;;;;;;;10103247;29;20054;-82
2023/04/08 12:33:16;;;;;;;7.90;4.82;;;;;;;;;;10119546;29;20044;-84
2023/04/08 12:38:21;;;;;;;6.00;4.38;;;;;;;;;;10111736;29;20053;-83
2023/04/08 12:43:24;;;;;;;5.68;3.78;;;;;;;;;;10120697;29;20108;-82
2023/04/08 12:48:28;;;;;;;7.32;4.70;;;;;;;;;;10103089;29;20069;-82
2023/04/08 12:53:34;;;;;;;6.78;4.47;;;;;;;;;;10103768;29;20064;-82
2023/04/08 12:58:37;;;;;;;5.00;3.92;;;;;;;;;;10120135;29;20115;-82
2023/04/08 13:03:41;;;;;;;4.30;3.58;;;;;;;;;;10103869;29;20053;-83
2023/04/08 13:08:47;;;;;;;4.20;3.03;;;;;;;;;;10106613;29;20506;-83
2023/04/08 13:13:51;;;;;;;4.53;3.67;;;;;;;;;;10102610;29;20466;-84
2023/04/08 13:18:55;;;;;;;3.70;2.70;;;;;;;;;;10128722;29;20041;-82
2023/04/08 13:24:00;;;;;;;6.45;5.10;;;;;;;;;;10120421;29;20549;-82
2023/04/08 13:29:03;;;;;;;4.50;3.22;;;;;;;;;;10130391;29;20111;-81
2023/04/08 13:34:06;;;;;;;4.30;3.30;;;;;;;;;;10140854;29;20060;-83
2023/04/08 13:39:11;;;;;;;4.25;3.08;;;;;;;;;;10149901;29;20107;-84
2023/04/08 13:44:15;;;;;;;5.03;3.50;;;;;;;;;;10140534;29;20104;-88
2023/04/08 13:49:19;;;;;;;4.22;3.17;;;;;;;;;;10117745;29;20049;-84
2023/04/08 13:54:25;;;;;;;3.70;2.78;;;;;;;;;;10123907;29;20053;-84
2023/04/08 13:59:28;;;;;;;3.85;2.78;;;;;;;;;;10115433;29;20049;-84
2023/04/08 14:04:34;;;;;;;3.67;2.78;;;;;;;;;;10109772;29;20140;-84
2023/04/08 14:09:39;;;;;;;4.93;3.83;;;;;;;;;;10110277;29;20045;-85
2023/04/08 14:14:46;;;;;;;3.70;2.97;;;;;;;;;;10124789;29;20068;-84
2023/04/08 14:19:50;;;;;;;3.38;2.72;;;;;;;;;;10127612;29;20056;-85
2023/04/08 14:24:55;;;;;;;8.25;3.38;;;;;;;;;;10114710;29;20059;-87
2023/04/08 14:29:58;;;;;;;3.97;3.15;;;;;;;;;;10112234;29;20128;-85
2023/04/08 14:35:02;;;;;;;4.07;3.28;;;;;;;;;;10126234;29;20041;-84
2023/04/08 14:40:08;;;;;;;5.30;3.65;;;;;;;;;;10136856;29;20053;-87
2023/04/08 14:45:12;;;;;;;4.90;3.15;;;;;;;;;;10114684;29;20076;-85
2023/04/08 14:50:18;;;;;;;5.88;3.55;;;;;;;;;;10119086;29;20053;-85
2023/04/08 14:55:27;;;;;;;4.32;3.17;;;;;;;;;;10122105;29;20056;-85
2023/04/08 15:00:30;;;;;;;5.22;3.58;;;;;;;;;;10128886;29;20048;-84
2023/04/08 15:05:34;;;;;;;4.55;2.90;;;;;;;;;;10125605;29;20048;-83
2023/04/08 15:10:40;;;;;;;5.10;4.18;;;;;;;;;;10113659;29;20040;-84
2023/04/08 15:15:43;;;;;;;4.30;3.03;;;;;;;;;;10119606;29;20661;-84
2023/04/08 15:20:47;;;;;;;3.97;2.65;;;;;;;;;;10123985;29;20568;-83
2023/04/08 15:25:52;;;;;;;4.00;3.33;;;;;;;;;;10107351;29;20596;-87
2023/04/08 15:30:56;;;;;;;3.75;2.97;;;;;;;;;;10131261;29;20113;-84
2023/04/08 15:36:18;;;;;;;4.53;3.00;;;;;;;;;;10120741;29;20540;-84
2023/04/08 15:41:43;;;;;;;3.45;2.65;;;;;;;;;;10117604;29;20539;-84
2023/04/08 15:46:55;;;;;;;5.10;3.80;;;;;;;;;;10110300;29;20044;-84
2023/04/08 15:52:02;;;;;;;3.65;2.25;;;;;;;;;;10113966;29;20105;-84
2023/04/08 15:57:08;;;;;;;3.28;2.47;;;;;;;;;;10109917;29;20049;-84
2023/04/08 16:02:12;;;;;;;3.53;2.70;;;;;;;;;;10107953;29;20411;-87
2023/04/08 16:07:17;;;;;;;2.53;2.30;;;;;;;;;;10120585;29;20785;-83
2023/04/08 16:12:25;;;;;;;3.08;2.15;;;;;;;;;;10106698;29;20064;-85
2023/04/08 16:17:33;;;;;;;4.00;3.38;;;;;;;;;;10098758;29;20734;-85
2023/04/08 16:23:02;;;;;;;3.10;2.30;;;;;;;;;;10107104;29;20060;-85
2023/04/08 16:28:18;;;;;;;2.38;2.05;;;;;;;;;;10114337;29;20044;-83
2023/04/08 16:33:22;;;;;;;3.00;2.25;;;;;;;;;;10117332;29;20077;-83
2023/04/08 16:38:35;;;;;;;3.03;2.40;;;;;;;;;;10122490;29;20262;-83
2023/04/08 16:43:43;;;;;;;2.22;2.03;;;;;;;;;;10110885;29;20040;-82
2023/04/08 16:48:46;;;;;;;3.45;2.10;;;;;;;;;;10122490;29;20048;-82
2023/04/08 16:53:50;;;;;;;3.22;2.50;;;;;;;;;;10098489;29;20044;-82
2023/04/08 16:58:56;;;;;;;2.55;2.13;;;;;;;;;;10113040;29;20047;-83
2023/04/08 17:04:00;;;;;;;2.20;2.00;;;;;;;;;;10101633;29;20051;-82
2023/04/08 17:09:04;;;;;;;2.03;1.77;;;;;;;;;;10120339;29;20426;-82
2023/04/08 17:14:08;;;;;;;2.28;1.77;;;;;;;;;;10105345;29;20624;-81
2023/04/08 17:19:12;;;;;;;1.75;1.60;;;;;;;;;;10110881;29;20060;-82
2023/04/08 17:24:19;;;;;;;2.30;1.60;;;;;;;;;;10125292;29;20057;-82
2023/04/08 17:29:24;;;;;;;2.58;1.70;;;;;;;;;;10110990;29;20414;-82
2023/04/08 17:34:30;;;;;;;2.30;1.50;;;;;;;;;;10110923;29;20157;-83
2023/04/08 17:39:39;;;;;;;2.03;1.60;;;;;;;;;;10113304;29;20196;-83
2023/04/08 17:44:43;;;;;;;2.13;1.77;;;;;;;;;;10106212;29;20048;-82
2023/04/08 17:49:49;;;;;;;4.68;1.92;;;;;;;;;;10103293;29;20108;-83
2023/04/08 17:54:54;;;;;;;2.67;1.77;;;;;;;;;;10106160;29;20090;-85
2023/04/08 17:59:59;;;;;;;3.00;2.15;;;;;;;;;;10121760;29;20071;-85
2023/04/08 18:05:03;;;;;;;3.80;2.47;;;;;;;;;;10126004;29;20047;-87
2023/04/08 18:10:08;;;;;;;2.83;2.00;;;;;;;;;;10114279;29;20072;-87
2023/04/08 18:15:13;;;;;;;2.80;1.75;;;;;;;;;;10127251;29;20040;-86
2023/04/08 18:20:19;;;;;;;2.83;2.20;;;;;;;;;;10113205;29;20077;-85
2023/04/08 18:25:22;;;;;;;2.65;2.13;;;;;;;;;;10126494;29;20665;-85
2023/04/08 18:30:28;;;;;;;3.50;2.30;;;;;;;;;;10109088;29;20124;-85
2023/04/08 18:35:32;;;;;;;2.40;1.95;;;;;;;;;;10111153;29;20071;-85
2023/04/08 18:40:44;;;;;;;2.20;1.73;;;;;;;;;;10135305;29;20056;-85
2023/04/08 18:45:49;;;;;;;2.40;2.00;;;;;;;;;;10120440;29;20186;-88
2023/04/08 18:50:53;;;;;;;4.80;2.13;;;;;;;;;;10134678;29;20175;-85
2023/04/08 18:56:01;;;;;;;2.45;1.55;;;;;;;;;;10128267;29;20054;-85
2023/04/08 19:01:08;;;;;;;2.60;2.20;;;;;;;;;;10145893;29;20477;-85
2023/04/08 19:06:12;;;;;;;2.45;1.92;;;;;;;;;;10122609;29;20485;-82
2023/04/08 19:11:16;;;;;;;2.20;1.80;;;;;;;;;;10109652;29;20044;-83
2023/04/08 19:16:21;;;;;;;2.53;2.10;;;;;;;;;;10113090;29;20056;-82
2023/04/08 19:21:26;;;;;;;4.75;2.88;;;;;;;;;;10127653;29;20070;-82
2023/04/08 19:26:29;;;;;;;7.57;3.90;;;;;;;;;;10125484;29;20092;-83
2023/04/08 19:31:37;;;;;;;6.03;4.20;;;;;;;;;;10102711;29;20198;-83
2023/04/08 19:36:41;;;;;;;4.85;3.40;;;;;;;;;;10103179;29;20570;-83
2023/04/08 19:41:44;;;;;;;3.58;2.67;;;;;;;;;;10113029;29;20053;-83
2023/04/08 19:46:50;;;;;;;4.75;3.80;;;;;;;;;;10120118;29;20047;-83
2023/04/08 19:51:53;;;;;;;6.68;4.80;;;;;;;;;;10109344;29;20057;-83
2023/04/08 19:56:57;;;;;;;7.78;5.50;;;;;;;;;;10108986;29;20143;-83
2023/04/08 20:02:02;;;;;;;4.82;3.15;;;;;;;;;;10106741;29;20494;-83
2023/04/08 20:07:06;;;;;;;3.90;2.60;;;;;;;;;;10120214;29;20040;-83
2023/04/08 20:12:09;;;;;;;4.80;2.92;;;;;;;;;;10096691;29;20511;-83
2023/04/08 20:17:15;;;;;;;4.88;3.35;;;;;;;;;;10103711;29;20063;-83
2023/04/08 20:22:19;;;;;;;4.60;3.05;;;;;;;;;;10102299;29;20053;-83
2023/04/08 20:27:23;;;;;;;5.03;3.80;;;;;;;;;;10117816;29;20072;-83
2023/04/08 20:32:27;;;;;;;4.50;3.03;;;;;;;;;;10108144;29;20060;-84
2023/04/08 20:37:33;;;;;;;4.10;2.75;;;;;;;;;;10102704;29;20049;-83
2023/04/08 20:42:37;;;;;;;5.65;3.40;;;;;;;;;;10115893;29;20466;-83
2023/04/08 20:47:43;;;;;;;3.97;2.80;;;;;;;;;;10128311;23;20139;-85
2023/04/08 20:52:46;;;;;;;2.75;2.13;;;;;;;;;;10103539;29;20127;-86
2023/04/08 20:57:50;;;;;;;3.30;2.58;;;;;;;;;;10104981;29;20051;-87
2023/04/08 21:02:55;;;;;;;3.22;2.58;;;;;;;;;;10102911;29;20457;-86
2023/04/08 21:07:59;;;;;;;2.80;2.40;;;;;;;;;;10114039;29;20450;-84
2023/04/08 21:13:02;;;;;;;4.03;3.17;;;;;;;;;;10097906;29;20071;-84
2023/04/08 21:18:09;;;;;;;3.35;2.70;;;;;;;;;;10099621;29;20040;-83
2023/04/08 21:23:13;;;;;;;4.93;2.80;;;;;;;;;;10109446;29;20072;-82
2023/04/08 21:28:16;;;;;;;4.70;2.30;;;;;;;;;;10094336;29;20045;-84
2023/04/08 21:33:21;;;;;;;4.25;3.00;;;;;;;;;;10115913;29;20069;-84
2023/04/08 21:38:24;;;;;;;4.72;2.75;;;;;;;;;;10116688;29;20066;-82
2023/04/08 21:43:27;;;;;;;7.05;3.67;;;;;;;;;;10110563;29;20425;-83
2023/04/08 21:48:32;;;;;;;5.57;3.75;;;;;;;;;;10129843;29;20054;-83
2023/04/08 21:53:35;;;;;;;6.00;3.60;;;;;;;;;;10119550;29;20045;-83
2023/04/08 21:58:39;;;;;;;6.38;3.92;;;;;;;;;;10110280;29;20048;-83
2023/04/08 22:03:44;;;;;;;11.18;6.68;;;;;;;;;;10102107;29;20051;-83
2023/04/08 22:08:49;;;;;;;6.22;4.38;;;;;;;;;;10120208;29;20088;-83
2023/04/08 22:13:52;;;;;;;6.10;3.25;;;;;;;;;;10105144;29;20329;-83
2023/04/08 22:19:11;;;;;;;3.95;2.97;;;;;;;;;;10121348;29;20135;-83
2023/04/08 22:24:22;;;;;;;4.22;2.90;;;;;;;;;;10128051;29;20100;-82
2023/04/08 22:29:25;;;;;;;3.45;2.60;;;;;;;;;;10119693;29;20055;-82
2023/04/08 22:34:30;;;;;;;3.90;2.40;;;;;;;;;;10120582;29;20051;-82
2023/04/08 22:39:34;;;;;;;2.20;2.00;;;;;;;;;;10106034;29;20049;-82
2023/04/08 22:44:37;;;;;;;3.10;2.35;;;;;;;;;;10103597;29;20045;-82
2023/04/08 22:49:42;;;;;;;3.50;2.60;;;;;;;;;;10102804;29;20083;-83
2023/04/08 22:54:45;;;;;;;4.30;2.53;;;;;;;;;;10119724;29;20596;-83
2023/04/08 22:59:48;;;;;;;3.00;2.33;;;;;;;;;;10118849;29;20140;-83
2023/04/08 23:04:55;;;;;;;3.35;2.75;;;;;;;;;;10096929;29;20434;-83
2023/04/08 23:09:58;;;;;;;4.32;3.13;;;;;;;;;;10118503;29;20173;-83
2023/04/08 23:15:02;;;;;;;3.97;3.00;;;;;;;;;;10120659;29;20037;-83
2023/04/08 23:20:08;;;;;;;5.00;3.53;;;;;;;;;;10101515;29;20051;-83
2023/04/08 23:25:11;;;;;;;5.20;2.92;;;;;;;;;;10118321;29;20101;-82
2023/04/08 23:30:15;;;;;;;4.28;2.83;;;;;;;;;;10117510;29;20048;-83
2023/04/08 23:35:20;;;;;;;3.78;2.85;;;;;;;;;;10117949;29;20064;-84
2023/04/08 23:40:23;;;;;;;5.93;3.35;;;;;;;;;;10115154;29;20078;-83
2023/04/08 23:45:26;;;;;;;3.85;2.97;;;;;;;;;;10101908;29;20048;-83
2023/04/08 23:50:31;;;;;;;5.90;3.55;;;;;;;;;;10100585;29;20071;-83
2023/04/08 23:55:34;;;;;;;3.83;2.95;;;;;;;;;;10101148;29;20055;-83
